Time;durP1;ratioP1;P1;durP2;ratioP2;P2;SDS_P1;SDS_P2;PMS_P1;PMS_P2;Temp;Humidity;BMP_temperature;BMP_pressure;BME280_temperature;BME280_humidity;BME280_pressure;Samples;Min_cycle;Max_cycle;Signal;HPM_P1;HPM_P2
2024/01/11 00:01:48;;;;;;;31.33;23.50;;;-4.60;99.90;;;;;;5079987;28;20051;-63
2024/01/11 00:04:14;;;;;;;35.97;24.65;;;-4.60;99.90;;;;;;5085724;28;20043;-63
2024/01/11 00:06:43;;;;;;;33.28;24.10;;;-4.60;99.90;;;;;;5091695;28;20131;-63
2024/01/11 00:09:09;;;;;;;34.17;22.88;;;-4.50;99.90;;;;;;5120928;27;20050;-63
2024/01/11 00:11:35;;;;;;;31.90;23.90;;;-4.70;99.90;;;;;;5090617;28;20039;-64
2024/01/11 00:14:00;;;;;;;30.95;22.88;;;-4.70;99.90;;;;;;5088605;28;20074;-63
2024/01/11 00:16:26;;;;;;;36.80;24.65;;;-4.60;99.90;;;;;;5088847;28;20044;-63
2024/01/11 00:18:52;;;;;;;32.08;22.50;;;-4.70;99.90;;;;;;5074974;28;20115;-63
2024/01/11 00:21:17;;;;;;;33.83;24.70;;;-4.70;99.90;;;;;;5085527;28;20040;-63
2024/01/11 00:23:43;;;;;;;35.45;24.38;;;-4.70;99.90;;;;;;5090686;28;20044;-63
2024/01/11 00:26:11;;;;;;;33.00;23.50;;;-4.70;99.90;;;;;;5084384;28;20036;-63
2024/01/11 00:28:37;;;;;;;32.45;22.25;;;-4.70;99.90;;;;;;5091039;28;20079;-63
2024/01/11 00:31:02;;;;;;;33.50;23.90;;;-4.80;99.90;;;;;;5069408;28;20551;-63
2024/01/11 00:33:28;;;;;;;33.22;23.48;;;-4.80;99.90;;;;;;5084087;28;20789;-63
2024/01/11 00:35:54;;;;;;;37.47;25.15;;;-4.80;99.90;;;;;;5093772;28;20038;-63
2024/01/11 00:38:20;;;;;;;37.28;24.40;;;-4.80;99.90;;;;;;5114807;27;20036;-63
2024/01/11 00:40:45;;;;;;;36.13;23.90;;;-4.80;99.90;;;;;;5087179;28;20158;-63
2024/01/11 00:43:11;;;;;;;34.08;23.25;;;-4.80;99.90;;;;;;5086385;28;20036;-63
2024/01/11 00:45:37;;;;;;;36.08;23.77;;;-4.90;99.90;;;;;;5088036;28;20062;-63
2024/01/11 00:48:04;;;;;;;36.28;24.60;;;-4.80;99.90;;;;;;5085309;28;20041;-63
2024/01/11 00:50:29;;;;;;;36.05;24.13;;;-4.90;99.90;;;;;;5086472;28;20031;-63
2024/01/11 00:52:55;;;;;;;37.45;22.92;;;-4.90;99.90;;;;;;5088095;28;20035;-63
2024/01/11 00:55:21;;;;;;;34.95;22.95;;;-4.90;99.90;;;;;;5091363;28;20398;-63
2024/01/11 00:57:47;;;;;;;34.33;23.75;;;-4.90;99.90;;;;;;5086098;28;20071;-63
2024/01/11 01:00:16;;;;;;;37.58;24.85;;;-4.90;99.90;;;;;;5088778;28;20429;-63
2024/01/11 01:02:42;;;;;;;36.53;24.88;;;-4.90;99.90;;;;;;5121713;27;20443;-63
2024/01/11 01:05:08;;;;;;;34.85;24.35;;;-4.90;99.90;;;;;;5088582;28;20036;-63
2024/01/11 01:07:33;;;;;;;34.45;23.38;;;-4.90;99.90;;;;;;5089051;28;20402;-63
2024/01/11 01:09:59;;;;;;;36.78;24.77;;;-4.90;99.90;;;;;;5086122;28;20044;-63
2024/01/11 01:12:25;;;;;;;36.35;23.30;;;-5.00;99.90;;;;;;5088946;28;20111;-63
2024/01/11 01:14:52;;;;;;;36.75;25.83;;;-4.90;99.90;;;;;;5087516;28;20428;-63
2024/01/11 01:17:18;;;;;;;35.50;25.05;;;-4.90;99.90;;;;;;5082569;28;20040;-63
2024/01/11 01:19:44;;;;;;;40.17;25.00;;;-4.90;99.90;;;;;;5085000;28;20492;-63
2024/01/11 01:22:10;;;;;;;36.60;24.90;;;-5.00;99.90;;;;;;5088745;28;20032;-63
2024/01/11 01:24:36;;;;;;;36.78;24.85;;;-5.00;99.90;;;;;;5091155;28;20039;-63
2024/01/11 01:27:02;;;;;;;38.42;25.67;;;-4.90;99.90;;;;;;5084502;28;20131;-63
2024/01/11 01:29:27;;;;;;;37.85;24.02;;;-4.90;99.90;;;;;;5090133;28;20119;-63
2024/01/11 01:31:53;;;;;;;37.42;25.30;;;-4.90;99.90;;;;;;5086206;28;20401;-63
2024/01/11 01:34:19;;;;;;;37.30;23.83;;;-4.90;99.90;;;;;;5088279;28;20048;-63
2024/01/11 01:36:44;;;;;;;39.38;24.38;;;-4.90;99.90;;;;;;5085696;28;20039;-63
2024/01/11 01:39:11;;;;;;;37.10;24.67;;;-4.90;99.90;;;;;;5087073;28;20097;-63
2024/01/11 01:41:37;;;;;;;35.30;23.80;;;-5.00;99.90;;;;;;5088202;28;20051;-64
2024/01/11 01:44:03;;;;;;;39.78;24.38;;;-5.00;99.90;;;;;;5086894;28;20497;-63
2024/01/11 01:46:28;;;;;;;36.30;25.05;;;-5.00;99.90;;;;;;5088333;28;20036;-63
2024/01/11 01:48:56;;;;;;;37.17;25.40;;;-5.00;99.90;;;;;;5082388;28;20512;-63
2024/01/11 01:51:23;;;;;;;37.67;24.42;;;-5.00;99.90;;;;;;5086664;28;20062;-63
2024/01/11 01:53:52;;;;;;;39.33;25.02;;;-5.00;99.90;;;;;;5089486;28;20409;-63
2024/01/11 01:56:19;;;;;;;37.53;23.70;;;-5.00;99.90;;;;;;5084218;28;20037;-63
2024/01/11 01:58:45;;;;;;;38.28;24.73;;;-5.00;99.90;;;;;;5084374;28;20044;-63
2024/01/11 02:01:12;;;;;;;41.20;25.60;;;-5.00;99.90;;;;;;5087081;28;20462;-63
2024/01/11 02:03:38;;;;;;;35.92;24.20;;;-5.00;99.90;;;;;;5088038;28;20059;-63
2024/01/11 02:06:05;;;;;;;36.33;24.17;;;-5.00;99.90;;;;;;5089048;28;20025;-64
2024/01/11 02:08:31;;;;;;;40.28;25.30;;;-5.00;99.90;;;;;;5086724;28;20134;-63
2024/01/11 02:11:01;;;;;;;37.78;25.55;;;-5.00;99.90;;;;;;5089052;28;20169;-63
2024/01/11 02:13:26;;;;;;;39.53;24.55;;;-4.90;99.90;;;;;;5089847;28;20402;-63
2024/01/11 02:15:52;;;;;;;38.22;25.70;;;-5.00;99.90;;;;;;5082752;28;20040;-63
2024/01/11 02:18:18;;;;;;;35.83;22.80;;;-4.80;99.90;;;;;;5087401;28;20043;-63
2024/01/11 02:20:44;;;;;;;41.50;26.13;;;-4.90;99.90;;;;;;5120169;27;20067;-63
2024/01/11 02:23:14;;;;;;;38.20;25.60;;;-4.90;99.90;;;;;;5087246;28;20589;-63
2024/01/11 02:25:40;;;;;;;38.17;25.70;;;-4.80;99.90;;;;;;5094651;27;20497;-63
2024/01/11 02:28:08;;;;;;;37.92;24.83;;;-4.90;99.90;;;;;;5088013;28;20162;-63
2024/01/11 02:30:34;;;;;;;36.13;25.75;;;-4.90;99.90;;;;;;5086188;28;20048;-63
2024/01/11 02:33:01;;;;;;;39.67;25.13;;;-4.80;99.90;;;;;;5088139;28;20032;-63
2024/01/11 02:35:27;;;;;;;37.13;26.08;;;-4.80;99.90;;;;;;5088996;28;20062;-63
2024/01/11 02:37:52;;;;;;;36.83;24.75;;;-4.90;99.90;;;;;;5085215;28;20040;-63
2024/01/11 02:40:19;;;;;;;38.95;25.02;;;-4.80;99.90;;;;;;5083272;28;20467;-63
2024/01/11 02:42:44;;;;;;;39.97;25.33;;;-4.90;99.90;;;;;;5086998;28;20028;-63
2024/01/11 02:45:12;;;;;;;37.90;25.38;;;-4.90;99.90;;;;;;5085582;28;20513;-63
2024/01/11 02:47:38;;;;;;;39.35;25.92;;;-4.90;99.90;;;;;;5085615;28;20048;-64
2024/01/11 02:50:05;;;;;;;35.65;23.73;;;-5.00;99.90;;;;;;5085056;28;20044;-63
2024/01/11 02:52:30;;;;;;;38.45;24.85;;;-4.90;99.90;;;;;;5084538;28;20048;-63
2024/01/11 02:54:56;;;;;;;36.38;24.52;;;-4.90;99.90;;;;;;5079661;28;20474;-63
2024/01/11 02:57:22;;;;;;;41.00;27.23;;;-4.90;99.90;;;;;;5085302;28;20040;-63
2024/01/11 02:59:47;;;;;;;39.55;25.67;;;-4.90;99.90;;;;;;5085718;28;20032;-63
2024/01/11 03:02:13;;;;;;;39.83;26.20;;;-4.90;99.90;;;;;;5082874;28;20052;-63
2024/01/11 03:04:38;;;;;;;40.53;27.42;;;-4.90;99.90;;;;;;5081364;28;20043;-63
2024/01/11 03:07:04;;;;;;;41.58;26.88;;;-4.90;99.90;;;;;;5084089;28;20052;-63
2024/01/11 03:09:29;;;;;;;43.50;27.63;;;-4.90;99.90;;;;;;5086396;28;20047;-63
2024/01/11 03:11:55;;;;;;;40.08;25.88;;;-4.90;99.90;;;;;;5081852;28;20047;-63
2024/01/11 03:14:21;;;;;;;41.92;28.05;;;-4.90;99.90;;;;;;5084508;28;20100;-63
2024/01/11 03:16:46;;;;;;;41.20;27.05;;;-4.90;99.90;;;;;;5083290;28;20059;-63
2024/01/11 03:19:12;;;;;;;43.65;27.55;;;-4.90;99.90;;;;;;5067098;28;20040;-63
2024/01/11 03:21:43;;;;;;;39.40;25.98;;;-4.90;99.90;;;;;;5083245;28;20397;-63
2024/01/11 03:24:08;;;;;;;39.72;27.20;;;-4.80;99.90;;;;;;5086815;28;20050;-63
2024/01/11 03:26:34;;;;;;;39.30;26.45;;;-4.80;99.90;;;;;;5080629;28;20040;-63
2024/01/11 03:28:59;;;;;;;39.38;27.30;;;-4.80;99.90;;;;;;5085865;28;20172;-63
2024/01/11 03:31:25;;;;;;;44.08;28.60;;;-4.80;99.90;;;;;;5085510;28;20048;-63
2024/01/11 03:33:51;;;;;;;38.22;25.75;;;-4.80;99.90;;;;;;5086504;28;20082;-63
2024/01/11 03:36:16;;;;;;;40.53;26.58;;;-4.80;99.90;;;;;;5067331;28;20047;-63
2024/01/11 03:38:42;;;;;;;42.33;27.33;;;-4.80;99.90;;;;;;5087034;28;20119;-63
2024/01/11 03:41:09;;;;;;;42.35;27.00;;;-4.80;99.90;;;;;;5090531;28;20072;-63
2024/01/11 03:43:36;;;;;;;41.05;27.33;;;-4.80;99.90;;;;;;5087308;28;20040;-63
2024/01/11 03:46:02;;;;;;;39.63;26.35;;;-4.80;99.90;;;;;;5089365;28;20040;-63
2024/01/11 03:48:27;;;;;;;41.80;27.80;;;-4.80;99.90;;;;;;5087895;28;20472;-63
2024/01/11 03:50:53;;;;;;;40.88;27.70;;;-4.80;99.90;;;;;;5084026;28;20058;-63
2024/01/11 03:53:18;;;;;;;42.15;28.10;;;-4.90;99.90;;;;;;5085352;28;20040;-63
2024/01/11 03:55:44;;;;;;;39.97;26.55;;;-4.90;99.90;;;;;;5089038;28;20043;-63
2024/01/11 03:58:10;;;;;;;41.20;27.48;;;-4.90;99.90;;;;;;5092599;28;20050;-63
2024/01/11 04:00:35;;;;;;;39.50;27.67;;;-4.90;99.90;;;;;;5088006;28;20097;-63
2024/01/11 04:03:01;;;;;;;39.67;25.23;;;-4.90;99.90;;;;;;5083951;28;20059;-63
2024/01/11 04:05:27;;;;;;;40.08;26.92;;;-4.90;99.90;;;;;;5089511;28;20051;-63
2024/01/11 04:07:53;;;;;;;36.30;25.40;;;-5.00;99.90;;;;;;5087631;28;20097;-63
2024/01/11 04:10:19;;;;;;;41.25;28.05;;;-5.00;99.90;;;;;;5090846;28;21380;-63
2024/01/11 04:12:44;;;;;;;43.10;26.98;;;-4.90;99.90;;;;;;5087091;28;20036;-63
2024/01/11 04:15:13;;;;;;;40.20;27.02;;;-4.90;99.90;;;;;;5086858;28;20032;-63
2024/01/11 04:17:39;;;;;;;42.53;27.65;;;-5.00;99.90;;;;;;5113933;27;20043;-63
2024/01/11 04:20:06;;;;;;;40.63;26.90;;;-4.90;99.90;;;;;;5088946;28;20039;-63
2024/01/11 04:22:32;;;;;;;40.30;26.33;;;-5.00;99.90;;;;;;5069950;28;20398;-63
2024/01/11 04:24:58;;;;;;;40.53;26.55;;;-5.00;99.90;;;;;;5083644;28;20044;-63
2024/01/11 04:27:24;;;;;;;43.47;26.85;;;-5.10;99.90;;;;;;5088061;28;20440;-63
2024/01/11 04:29:49;;;;;;;39.70;27.42;;;-5.00;99.90;;;;;;5087227;28;20048;-63
2024/01/11 04:32:15;;;;;;;41.42;25.88;;;-5.00;99.90;;;;;;5086701;28;20059;-63
2024/01/11 04:34:40;;;;;;;41.53;26.98;;;-5.10;99.90;;;;;;5083245;28;20047;-63
2024/01/11 04:37:06;;;;;;;46.58;28.00;;;-5.00;99.90;;;;;;5090180;28;20047;-63
2024/01/11 04:39:32;;;;;;;43.58;28.17;;;-5.10;99.90;;;;;;5112691;27;20040;-63
2024/01/11 04:42:00;;;;;;;42.40;26.52;;;-5.10;99.90;;;;;;5088081;28;20115;-63
2024/01/11 04:44:26;;;;;;;40.15;26.35;;;-5.10;99.90;;;;;;5083830;28;20048;-63
2024/01/11 04:46:51;;;;;;;40.30;26.40;;;-5.00;99.90;;;;;;5086996;28;20062;-63
2024/01/11 04:49:17;;;;;;;38.00;25.98;;;-5.10;99.90;;;;;;5088016;28;20116;-64
2024/01/11 04:51:43;;;;;;;41.28;26.63;;;-5.10;99.90;;;;;;5092133;28;20127;-63
2024/01/11 04:54:08;;;;;;;40.15;25.98;;;-5.10;99.90;;;;;;5090637;28;20505;-63
2024/01/11 04:56:34;;;;;;;39.80;26.52;;;-5.20;99.90;;;;;;5085660;28;20043;-63
2024/01/11 04:58:59;;;;;;;39.70;26.20;;;-5.10;99.90;;;;;;5090456;28;20035;-63
2024/01/11 05:01:25;;;;;;;38.92;25.45;;;-5.20;99.90;;;;;;5085394;28;20539;-63
2024/01/11 05:03:51;;;;;;;37.42;24.38;;;-5.30;99.90;;;;;;5088968;28;20044;-63
2024/01/11 05:06:21;;;;;;;41.00;25.80;;;-5.20;99.90;;;;;;5115945;27;20128;-63
2024/01/11 05:08:49;;;;;;;36.88;25.17;;;-5.10;99.90;;;;;;5086457;28;20118;-63
2024/01/11 05:11:19;;;;;;;38.22;27.05;;;-5.20;99.90;;;;;;5084012;28;20389;-63
2024/01/11 05:13:50;;;;;;;38.28;27.23;;;-5.20;99.90;;;;;;5089600;28;20046;-63
2024/01/11 05:16:19;;;;;;;37.47;26.40;;;-5.20;99.90;;;;;;5085662;28;20118;-63
2024/01/11 05:18:45;;;;;;;42.20;27.45;;;-5.20;99.90;;;;;;5114970;27;20077;-63
2024/01/11 05:21:11;;;;;;;40.42;28.88;;;-5.10;99.90;;;;;;5063569;28;20033;-63
2024/01/11 05:23:36;;;;;;;41.67;27.02;;;-5.10;99.90;;;;;;5080422;28;20246;-63
2024/01/11 05:26:02;;;;;;;45.33;29.30;;;-5.00;99.90;;;;;;5078267;28;20213;-63
2024/01/11 05:28:28;;;;;;;43.65;27.83;;;-5.00;99.90;;;;;;5081512;28;20029;-63
2024/01/11 05:30:54;;;;;;;43.35;27.50;;;-5.00;99.90;;;;;;5081138;28;20051;-63
2024/01/11 05:33:20;;;;;;;44.97;29.63;;;-4.90;99.90;;;;;;5079139;28;20047;-63
2024/01/11 05:35:46;;;;;;;45.40;29.35;;;-4.80;99.90;;;;;;5078956;28;20419;-63
2024/01/11 05:38:12;;;;;;;42.75;27.17;;;-4.80;99.90;;;;;;5075576;28;20036;-63
2024/01/11 05:40:37;;;;;;;46.08;28.50;;;-4.80;99.90;;;;;;5080453;28;20561;-63
2024/01/11 05:43:03;;;;;;;44.10;29.25;;;-4.70;99.90;;;;;;5076281;28;20060;-63
2024/01/11 05:45:29;;;;;;;46.50;29.08;;;-4.60;99.90;;;;;;5081757;28;21280;-63
2024/01/11 05:47:54;;;;;;;45.28;28.48;;;-4.50;99.90;;;;;;5082779;28;20040;-63
2024/01/11 05:50:20;;;;;;;46.60;29.77;;;-4.50;99.90;;;;;;5081559;28;20389;-63
2024/01/11 05:52:46;;;;;;;42.90;28.45;;;-4.40;99.90;;;;;;5088699;28;20043;-63
2024/01/11 05:55:12;;;;;;;45.35;29.10;;;-4.30;99.90;;;;;;5116589;27;20039;-63
2024/01/11 05:57:37;;;;;;;46.00;29.25;;;-4.30;99.90;;;;;;5089800;28;20042;-63
2024/01/11 06:00:05;;;;;;;42.58;28.73;;;-4.20;99.90;;;;;;5082010;28;20040;-63
2024/01/11 06:02:31;;;;;;;43.13;28.77;;;-4.20;99.90;;;;;;5086422;28;20031;-63
2024/01/11 06:04:57;;;;;;;42.05;28.80;;;-4.20;99.90;;;;;;5086541;28;20098;-63
2024/01/11 06:07:23;;;;;;;44.75;28.33;;;-4.10;99.90;;;;;;5084842;28;20056;-63
2024/01/11 06:09:49;;;;;;;41.03;27.48;;;-4.00;99.90;;;;;;5083328;28;20664;-63
2024/01/11 06:12:15;;;;;;;42.60;27.75;;;-4.00;99.90;;;;;;5086092;28;20122;-63
2024/01/11 06:14:40;;;;;;;42.38;28.85;;;-3.90;99.90;;;;;;5086100;28;20089;-63
2024/01/11 06:17:06;;;;;;;40.78;27.70;;;-3.80;99.90;;;;;;5089858;28;20041;-63
2024/01/11 06:19:32;;;;;;;46.75;29.67;;;-3.80;99.90;;;;;;5085508;28;20374;-63
2024/01/11 06:21:58;;;;;;;43.33;30.30;;;-3.70;99.90;;;;;;5083532;28;20047;-63
2024/01/11 06:24:23;;;;;;;46.35;30.40;;;-3.70;99.90;;;;;;5087140;28;20464;-63
2024/01/11 06:26:49;;;;;;;46.08;29.38;;;-3.60;99.90;;;;;;5088567;28;20470;-63
2024/01/11 06:29:15;;;;;;;39.25;28.30;;;-3.50;99.90;;;;;;5119460;27;20422;-63
2024/01/11 06:31:41;;;;;;;42.50;28.33;;;-3.60;99.90;;;;;;5085363;28;20496;-63
2024/01/11 06:34:06;;;;;;;40.15;28.60;;;-3.50;99.90;;;;;;5085182;28;20043;-63
2024/01/11 06:36:32;;;;;;;39.45;27.83;;;-3.50;99.90;;;;;;5089973;28;20024;-63
2024/01/11 06:38:58;;;;;;;44.08;29.55;;;-3.40;99.90;;;;;;5083763;28;20036;-63
2024/01/11 06:41:24;;;;;;;40.40;27.92;;;-3.40;99.90;;;;;;5084644;28;20513;-63
2024/01/11 06:43:49;;;;;;;41.30;28.98;;;-3.30;99.90;;;;;;5084512;28;20044;-63
2024/01/11 06:46:21;;;;;;;41.22;28.08;;;-3.30;99.90;;;;;;5083642;28;20035;-63
2024/01/11 06:48:47;;;;;;;39.95;27.95;;;-3.20;99.90;;;;;;5113218;27;20661;-63
2024/01/11 06:51:16;;;;;;;39.58;28.85;;;-3.20;99.90;;;;;;5083544;28;20031;-63
2024/01/11 06:53:42;;;;;;;65.22;28.70;;;-3.20;99.90;;;;;;5086527;28;20048;-67
2024/01/11 06:56:18;;;;;;;41.15;28.13;;;-3.10;99.90;;;;;;5116158;27;20385;-67
2024/01/11 06:58:45;;;;;;;37.92;26.85;;;-3.00;99.90;;;;;;5086751;28;20094;-67
2024/01/11 07:01:11;;;;;;;39.42;28.15;;;-2.90;99.90;;;;;;5076178;28;20058;-64
2024/01/11 07:03:37;;;;;;;44.53;28.58;;;-2.90;99.90;;;;;;5082580;28;20044;-64
2024/01/11 07:06:04;;;;;;;42.85;28.38;;;-2.90;99.90;;;;;;5080307;28;20036;-64
2024/01/11 07:08:30;;;;;;;40.65;28.05;;;-2.80;99.90;;;;;;5075876;28;20038;-64
2024/01/11 07:10:56;;;;;;;42.00;28.13;;;-2.70;99.90;;;;;;5086491;28;20034;-64
2024/01/11 07:13:22;;;;;;;38.20;27.15;;;-2.80;99.90;;;;;;5085503;28;20101;-64
2024/01/11 07:15:48;;;;;;;43.42;28.98;;;-2.70;99.90;;;;;;5081851;28;20040;-64
2024/01/11 07:18:14;;;;;;;40.78;29.05;;;-2.70;99.90;;;;;;5080571;28;20040;-64
2024/01/11 07:20:40;;;;;;;41.92;27.65;;;-2.70;99.90;;;;;;5081622;28;20033;-64
2024/01/11 07:23:06;;;;;;;39.33;27.13;;;-2.70;99.90;;;;;;5080189;28;20513;-64
2024/01/11 07:25:34;;;;;;;40.50;27.38;;;-2.60;99.90;;;;;;5068698;28;20048;-64
2024/01/11 07:28:00;;;;;;;54.70;29.35;;;-2.60;99.90;;;;;;5081184;28;20483;-64
2024/01/11 07:30:25;;;;;;;40.75;27.73;;;-2.60;99.90;;;;;;5084573;28;20078;-64
2024/01/11 07:32:51;;;;;;;39.75;27.95;;;-2.50;99.90;;;;;;5084403;28;20046;-64
2024/01/11 07:35:17;;;;;;;41.15;27.75;;;-2.60;99.90;;;;;;5082513;28;20041;-64
2024/01/11 07:37:43;;;;;;;40.17;26.77;;;-2.50;99.90;;;;;;5081529;28;20040;-64
2024/01/11 07:40:10;;;;;;;40.53;28.00;;;-2.50;99.90;;;;;;5084611;28;20036;-64
2024/01/11 07:42:40;;;;;;;42.28;28.05;;;-2.50;99.90;;;;;;5085672;28;20045;-64
2024/01/11 07:45:07;;;;;;;41.35;27.92;;;-2.40;99.90;;;;;;5068440;28;20123;-64
2024/01/11 07:47:33;;;;;;;39.67;27.52;;;-2.40;99.90;;;;;;5083031;28;20043;-64
2024/01/11 07:49:59;;;;;;;41.80;28.52;;;-2.40;99.90;;;;;;5081829;28;20032;-64
2024/01/11 07:52:25;;;;;;;40.08;27.17;;;-2.40;99.90;;;;;;5081085;28;20040;-64
2024/01/11 07:54:51;;;;;;;39.70;27.65;;;-2.40;99.90;;;;;;5079324;28;20044;-64
2024/01/11 07:57:17;;;;;;;41.45;28.88;;;-2.30;99.90;;;;;;5081847;28;20058;-64
2024/01/11 07:59:42;;;;;;;40.00;29.05;;;-2.30;99.90;;;;;;5076351;28;20457;-64
2024/01/11 08:02:08;;;;;;;45.97;29.65;;;-2.30;99.90;;;;;;5077873;28;20049;-64
2024/01/11 08:04:33;;;;;;;42.50;28.38;;;-2.20;99.90;;;;;;5078667;28;20580;-64
2024/01/11 08:06:59;;;;;;;45.72;30.42;;;-2.20;99.90;;;;;;5080857;28;20036;-64
2024/01/11 08:09:28;;;;;;;39.08;28.70;;;-2.20;99.90;;;;;;5081709;28;20051;-64
2024/01/11 08:11:54;;;;;;;39.15;27.92;;;-2.20;99.90;;;;;;5078064;28;20674;-64
2024/01/11 08:14:20;;;;;;;42.58;27.27;;;-2.20;99.90;;;;;;5111520;27;20069;-64
2024/01/11 08:16:46;;;;;;;40.38;28.00;;;-2.10;99.90;;;;;;5108343;27;20067;-64
2024/01/11 08:19:15;;;;;;;38.35;26.65;;;-2.10;99.90;;;;;;5079387;28;20028;-64
2024/01/11 08:21:42;;;;;;;41.25;28.58;;;-2.10;99.90;;;;;;5075649;28;20036;-64
2024/01/11 08:24:08;;;;;;;40.72;27.80;;;-2.00;99.90;;;;;;5086182;28;20096;-64
2024/01/11 08:26:34;;;;;;;38.33;26.58;;;-2.00;99.90;;;;;;5082418;28;20048;-64
2024/01/11 08:28:59;;;;;;;40.53;28.98;;;-2.00;99.90;;;;;;5062794;28;20031;-64
2024/01/11 08:31:25;;;;;;;38.58;26.92;;;-2.00;99.90;;;;;;5083276;28;21278;-64
2024/01/11 08:33:51;;;;;;;40.05;28.85;;;-1.90;99.90;;;;;;5078473;28;20048;-64
2024/01/11 08:36:16;;;;;;;39.63;29.23;;;-1.90;99.90;;;;;;5081067;28;20032;-64
2024/01/11 08:38:42;;;;;;;37.90;27.27;;;-1.80;99.90;;;;;;5081673;28;20093;-64
2024/01/11 08:41:08;;;;;;;41.80;29.27;;;-1.80;99.90;;;;;;5081271;28;20048;-64
2024/01/11 08:43:34;;;;;;;39.08;28.45;;;-1.80;99.90;;;;;;5083222;28;20044;-64
2024/01/11 08:45:59;;;;;;;41.80;28.80;;;-1.70;99.90;;;;;;5082410;28;20036;-64
2024/01/11 08:48:28;;;;;;;39.47;27.80;;;-1.80;99.90;;;;;;5080991;28;20052;-64
2024/01/11 08:50:54;;;;;;;39.47;28.38;;;-1.70;99.90;;;;;;5080586;28;20510;-64
2024/01/11 08:53:19;;;;;;;43.35;29.17;;;-1.60;99.90;;;;;;5082713;28;20084;-64
2024/01/11 08:55:45;;;;;;;40.15;27.65;;;-1.60;99.90;;;;;;5084695;28;20047;-64
2024/01/11 08:58:11;;;;;;;45.90;28.13;;;-1.60;99.90;;;;;;5064676;28;20039;-64
2024/01/11 09:00:37;;;;;;;39.17;28.60;;;-1.50;99.90;;;;;;5082463;28;20425;-64
2024/01/11 09:03:03;;;;;;;39.97;29.52;;;-1.50;99.90;;;;;;5079919;28;20043;-64
2024/01/11 09:05:29;;;;;;;41.90;28.77;;;-1.40;99.90;;;;;;5115076;27;20098;-64
2024/01/11 09:07:55;;;;;;;41.60;27.95;;;-1.60;99.90;;;;;;5081705;28;20045;-64
2024/01/11 09:10:21;;;;;;;44.88;28.02;;;-1.40;99.90;;;;;;5081194;28;20051;-64
2024/01/11 09:12:47;;;;;;;40.63;28.65;;;-1.40;99.90;;;;;;5084646;28;20028;-64
2024/01/11 09:15:12;;;;;;;41.35;28.38;;;-1.30;99.90;;;;;;5080032;28;20036;-64
2024/01/11 09:17:39;;;;;;;43.65;29.90;;;-1.30;99.90;;;;;;5080556;28;20549;-64
2024/01/11 09:20:05;;;;;;;39.00;27.67;;;-1.20;99.90;;;;;;5082919;28;20041;-64
2024/01/11 09:22:31;;;;;;;41.90;29.90;;;-1.20;99.90;;;;;;5097120;27;20045;-64
2024/01/11 09:24:57;;;;;;;44.33;30.70;;;-1.20;99.90;;;;;;5078645;28;20035;-64
2024/01/11 09:27:23;;;;;;;40.15;29.08;;;-1.10;99.90;;;;;;5061539;28;20036;-64
2024/01/11 09:29:48;;;;;;;43.72;28.95;;;-1.10;99.90;;;;;;5079640;28;20073;-64
2024/01/11 09:32:14;;;;;;;45.95;29.33;;;-1.00;99.90;;;;;;5063621;28;20040;-64
2024/01/11 09:34:40;;;;;;;39.58;28.00;;;-1.00;99.90;;;;;;5111542;27;20622;-64
2024/01/11 09:37:06;;;;;;;38.70;27.23;;;-1.00;99.90;;;;;;5083604;28;20044;-64
2024/01/11 09:39:31;;;;;;;40.72;28.63;;;-0.90;99.90;;;;;;5080467;28;20066;-64
2024/01/11 09:42:09;;;;;;;39.33;28.98;;;-0.90;99.90;;;;;;5081938;28;20048;-64
2024/01/11 09:44:37;;;;;;;37.17;28.02;;;-0.80;99.90;;;;;;5112483;27;20048;-64
2024/01/11 09:47:06;;;;;;;38.50;27.52;;;-0.80;99.90;;;;;;5081215;28;20044;-64
2024/01/11 09:49:33;;;;;;;38.85;28.05;;;-0.80;99.90;;;;;;5110764;27;20040;-64
2024/01/11 09:52:01;;;;;;;38.85;28.33;;;-0.70;99.90;;;;;;5115804;27;20044;-64
2024/01/11 09:54:27;;;;;;;40.15;28.13;;;-0.70;99.90;;;;;;5081530;28;20044;-64
2024/01/11 09:56:54;;;;;;;40.03;29.35;;;-0.70;99.90;;;;;;5110612;27;20174;-64
2024/01/11 09:59:23;;;;;;;42.00;27.70;;;-0.60;99.90;;;;;;5078738;28;20115;-64
2024/01/11 10:01:49;;;;;;;39.92;26.90;;;-0.60;99.90;;;;;;5110800;27;20157;-64
2024/01/11 10:04:16;;;;;;;38.03;28.88;;;-0.50;99.90;;;;;;5080739;28;20182;-64
2024/01/11 10:06:42;;;;;;;38.15;27.95;;;-0.50;99.90;;;;;;5082635;28;20147;-64
2024/01/11 10:09:08;;;;;;;39.05;28.17;;;-0.40;99.90;;;;;;5080742;28;20546;-64
2024/01/11 10:11:37;;;;;;;33.63;25.98;;;-0.40;99.90;;;;;;5082884;28;20093;-64
2024/01/11 10:14:04;;;;;;;39.08;27.45;;;-0.40;99.90;;;;;;5083426;28;20162;-64
2024/01/11 10:16:31;;;;;;;38.55;26.73;;;-0.30;99.90;;;;;;5079196;28;20032;-64
2024/01/11 10:18:57;;;;;;;38.13;28.73;;;-0.20;99.90;;;;;;5079024;28;20531;-64
2024/01/11 10:21:24;;;;;;;38.55;27.83;;;-0.20;99.90;;;;;;5110851;27;20040;-64
2024/01/11 10:23:50;;;;;;;35.22;26.15;;;-0.10;99.90;;;;;;5063724;28;20043;-64
2024/01/11 10:26:17;;;;;;;38.20;27.08;;;-0.10;99.90;;;;;;5065643;28;20059;-64
2024/01/11 10:28:45;;;;;;;36.50;26.60;;;-0.10;99.90;;;;;;5076996;28;20029;-64
2024/01/11 10:31:11;;;;;;;34.95;26.15;;;-0.10;99.90;;;;;;5080722;28;20070;-64
2024/01/11 10:33:37;;;;;;;37.05;26.30;;;0.00;99.90;;;;;;5081769;28;20028;-64
2024/01/11 10:36:03;;;;;;;36.35;25.45;;;0.00;99.90;;;;;;5080471;28;20040;-64
2024/01/11 10:38:36;;;;;;;34.70;25.48;;;0.00;99.90;;;;;;5079578;28;20079;-64
2024/01/11 10:41:05;;;;;;;34.17;25.42;;;0.10;99.90;;;;;;5078605;28;20044;-64
2024/01/11 10:43:32;;;;;;;33.97;25.48;;;0.10;99.90;;;;;;5081254;28;20043;-64
2024/01/11 10:46:04;;;;;;;37.03;26.60;;;0.10;99.90;;;;;;5108977;27;20248;-64
2024/01/11 10:48:38;;;;;;;36.55;26.50;;;0.20;99.90;;;;;;5080775;28;20589;-64
2024/01/11 10:51:08;;;;;;;34.17;25.48;;;0.20;99.90;;;;;;5077822;28;20123;-64
2024/01/11 10:53:42;;;;;;;39.22;27.42;;;0.30;99.90;;;;;;5077841;28;20052;-64
2024/01/11 10:56:09;;;;;;;33.90;25.85;;;0.20;99.90;;;;;;5081123;28;20083;-64
2024/01/11 10:58:35;;;;;;;35.10;26.02;;;0.20;99.90;;;;;;5078525;28;20043;-64
2024/01/11 11:01:02;;;;;;;36.53;26.13;;;0.30;99.90;;;;;;5079744;28;20036;-64
2024/01/11 11:03:30;;;;;;;33.58;25.70;;;0.30;99.90;;;;;;5081175;28;20517;-64
2024/01/11 11:05:58;;;;;;;36.22;26.88;;;0.40;99.90;;;;;;5077201;28;20047;-64
2024/01/11 11:08:25;;;;;;;37.65;27.33;;;0.30;99.90;;;;;;5082967;28;20496;-64
2024/01/11 11:10:59;;;;;;;36.03;26.70;;;0.30;99.90;;;;;;5087842;28;20044;-64
2024/01/11 11:13:25;;;;;;;31.70;24.65;;;0.40;99.90;;;;;;5115045;27;20595;-64
2024/01/11 11:15:52;;;;;;;36.17;25.17;;;0.40;99.90;;;;;;5081339;28;20048;-64
2024/01/11 11:18:18;;;;;;;37.85;25.80;;;0.40;99.90;;;;;;5114723;27;20044;-64
2024/01/11 11:20:45;;;;;;;34.83;26.23;;;0.50;99.90;;;;;;5079316;28;20032;-64
2024/01/11 11:23:14;;;;;;;32.25;23.88;;;0.50;99.90;;;;;;5077247;28;20044;-64
2024/01/11 11:25:40;;;;;;;32.95;24.55;;;0.50;99.90;;;;;;5081891;28;20048;-64
2024/01/11 11:28:07;;;;;;;31.05;24.50;;;0.50;99.90;;;;;;5077671;28;20047;-64
2024/01/11 11:30:33;;;;;;;31.80;24.42;;;0.50;99.90;;;;;;5078039;28;20093;-64
2024/01/11 11:33:11;;;;;;;30.85;23.35;;;0.50;99.90;;;;;;5077860;28;20040;-64
2024/01/11 11:35:38;;;;;;;34.10;23.63;;;0.60;99.90;;;;;;5076930;28;20064;-64
2024/01/11 11:38:05;;;;;;;32.08;23.67;;;0.60;99.90;;;;;;5074324;28;20050;-64
2024/01/11 11:40:39;;;;;;;30.95;23.60;;;0.50;99.90;;;;;;5111947;27;20127;-64
2024/01/11 11:43:06;;;;;;;31.65;23.20;;;0.60;99.90;;;;;;5080131;28;20055;-64
2024/01/11 11:45:32;;;;;;;29.70;22.88;;;0.60;99.90;;;;;;5079989;28;20619;-64
2024/01/11 11:47:58;;;;;;;28.52;22.48;;;0.60;99.90;;;;;;5110990;27;20669;-64
2024/01/11 11:50:24;;;;;;;31.70;22.92;;;0.70;99.90;;;;;;5110094;27;20071;-64
2024/01/11 11:52:57;;;;;;;28.63;22.08;;;0.70;99.90;;;;;;5078441;28;21366;-64
2024/01/11 11:55:25;;;;;;;29.38;22.27;;;0.80;99.90;;;;;;5079697;28;20040;-64
2024/01/11 11:57:52;;;;;;;33.17;23.17;;;0.70;99.90;;;;;;5081475;28;20063;-64
2024/01/11 12:00:18;;;;;;;30.15;21.98;;;0.80;99.90;;;;;;5084703;28;20441;-64
2024/01/11 12:02:44;;;;;;;31.25;22.38;;;0.80;99.90;;;;;;5082155;28;20033;-64
2024/01/11 12:05:09;;;;;;;28.02;21.10;;;0.80;99.90;;;;;;5068952;28;20051;-64
2024/01/11 12:07:35;;;;;;;29.17;21.27;;;0.90;99.90;;;;;;5080480;28;20394;-64
2024/01/11 12:10:01;;;;;;;30.05;21.30;;;0.90;99.90;;;;;;5080605;28;20036;-64
2024/01/11 12:12:28;;;;;;;30.08;21.48;;;0.90;99.90;;;;;;5081562;28;20040;-64
2024/01/11 12:14:54;;;;;;;28.13;21.70;;;0.90;99.90;;;;;;5114553;27;20055;-64
2024/01/11 12:17:20;;;;;;;25.95;20.02;;;1.00;99.90;;;;;;5081728;28;20367;-64
2024/01/11 12:19:45;;;;;;;28.63;22.13;;;0.90;99.90;;;;;;5079621;28;20029;-64
2024/01/11 12:22:11;;;;;;;28.00;21.33;;;1.00;99.90;;;;;;5081595;28;20504;-64
2024/01/11 12:24:37;;;;;;;30.45;22.15;;;1.00;99.90;;;;;;5079536;28;20128;-64